sensor_id;sensor_type;location;lat;lon;timestamp;P1;durP1;ratioP1;P2;durP2;ratioP2
64903;SDS011;51401;48.882;12.598;2022-11-12T00:01:07;16.80;;;6.55;;
64903;SDS011;51401;48.882;12.598;2022-11-12T00:03:32;14.50;;;5.65;;
64903;SDS011;51401;48.882;12.598;2022-11-12T00:05:58;14.73;;;5.88;;
64903;SDS011;51401;48.882;12.598;2022-11-12T00:08:23;9.95;;;5.28;;
64903;SDS011;51401;48.882;12.598;2022-11-12T00:10:48;10.27;;;5.20;;
64903;SDS011;51401;48.882;12.598;2022-11-12T00:13:14;8.35;;;4.82;;
64903;SDS011;51401;48.882;12.598;2022-11-12T00:15:39;11.20;;;5.40;;
64903;SDS011;51401;48.882;12.598;2022-11-12T00:18:04;9.90;;;5.38;;
64903;SDS011;51401;48.882;12.598;2022-11-12T00:20:31;12.85;;;5.15;;
64903;SDS011;51401;48.882;12.598;2022-11-12T00:22:57;12.60;;;6.13;;
64903;SDS011;51401;48.882;12.598;2022-11-12T00:25:22;11.02;;;4.85;;
64903;SDS011;51401;48.882;12.598;2022-11-12T00:27:47;11.75;;;5.50;;
64903;SDS011;51401;48.882;12.598;2022-11-12T00:30:13;10.02;;;6.18;;
64903;SDS011;51401;48.882;12.598;2022-11-12T00:32:38;15.70;;;5.28;;
64903;SDS011;51401;48.882;12.598;2022-11-12T00:35:04;10.45;;;5.63;;
64903;SDS011;51401;48.882;12.598;2022-11-12T00:37:30;9.85;;;5.80;;
64903;SDS011;51401;48.882;12.598;2022-11-12T00:39:55;13.90;;;7.05;;
64903;SDS011;51401;48.882;12.598;2022-11-12T00:42:21;10.10;;;5.35;;
64903;SDS011;51401;48.882;12.598;2022-11-12T00:44:46;22.95;;;6.65;;
64903;SDS011;51401;48.882;12.598;2022-11-12T00:47:13;15.77;;;5.93;;
64903;SDS011;51401;48.882;12.598;2022-11-12T00:49:39;9.43;;;5.35;;
64903;SDS011;51401;48.882;12.598;2022-11-12T00:52:04;11.23;;;5.68;;
64903;SDS011;51401;48.882;12.598;2022-11-12T00:54:29;10.23;;;5.53;;
64903;SDS011;51401;48.882;12.598;2022-11-12T00:56:55;9.98;;;5.20;;
64903;SDS011;51401;48.882;12.598;2022-11-12T00:59:20;10.45;;;5.28;;
64903;SDS011;51401;48.882;12.598;2022-11-12T01:01:45;8.90;;;5.18;;
64903;SDS011;51401;48.882;12.598;2022-11-12T01:04:10;10.40;;;6.10;;
64903;SDS011;51401;48.882;12.598;2022-11-12T01:06:38;10.10;;;5.85;;
64903;SDS011;51401;48.882;12.598;2022-11-12T01:09:05;10.15;;;6.60;;
64903;SDS011;51401;48.882;12.598;2022-11-12T01:11:31;9.77;;;5.85;;
64903;SDS011;51401;48.882;12.598;2022-11-12T01:14:03;11.55;;;5.40;;
64903;SDS011;51401;48.882;12.598;2022-11-12T01:16:33;13.05;;;6.03;;
64903;SDS011;51401;48.882;12.598;2022-11-12T01:19:01;8.77;;;5.63;;
64903;SDS011;51401;48.882;12.598;2022-11-12T01:21:28;8.32;;;5.97;;
64903;SDS011;51401;48.882;12.598;2022-11-12T01:23:59;10.82;;;5.22;;
64903;SDS011;51401;48.882;12.598;2022-11-12T01:26:25;10.75;;;5.70;;
64903;SDS011;51401;48.882;12.598;2022-11-12T01:28:54;8.32;;;5.45;;
64903;SDS011;51401;48.882;12.598;2022-11-12T01:31:24;7.28;;;5.43;;
64903;SDS011;51401;48.882;12.598;2022-11-12T01:33:57;9.18;;;5.53;;
64903;SDS011;51401;48.882;12.598;2022-11-12T01:36:25;8.48;;;5.22;;
64903;SDS011;51401;48.882;12.598;2022-11-12T01:38:52;8.55;;;5.65;;
64903;SDS011;51401;48.882;12.598;2022-11-12T01:41:20;9.02;;;5.60;;
64903;SDS011;51401;48.882;12.598;2022-11-12T01:43:47;11.75;;;6.53;;
64903;SDS011;51401;48.882;12.598;2022-11-12T01:46:20;8.27;;;5.00;;
64903;SDS011;51401;48.882;12.598;2022-11-12T01:48:49;7.50;;;5.55;;
64903;SDS011;51401;48.882;12.598;2022-11-12T01:51:18;6.60;;;5.18;;
64903;SDS011;51401;48.882;12.598;2022-11-12T01:53:46;7.47;;;5.38;;
64903;SDS011;51401;48.882;12.598;2022-11-12T01:56:15;11.40;;;5.47;;
64903;SDS011;51401;48.882;12.598;2022-11-12T01:58:42;10.90;;;5.55;;
64903;SDS011;51401;48.882;12.598;2022-11-12T02:01:09;12.45;;;5.20;;
64903;SDS011;51401;48.882;12.598;2022-11-12T02:03:34;8.32;;;5.38;;
64903;SDS011;51401;48.882;12.598;2022-11-12T02:06:01;8.18;;;5.18;;
64903;SDS011;51401;48.882;12.598;2022-11-12T02:08:30;7.68;;;4.82;;
64903;SDS011;51401;48.882;12.598;2022-11-12T02:10:56;9.30;;;4.93;;
64903;SDS011;51401;48.882;12.598;2022-11-12T02:13:22;8.23;;;5.22;;
64903;SDS011;51401;48.882;12.598;2022-11-12T02:16:06;6.78;;;4.75;;
64903;SDS011;51401;48.882;12.598;2022-11-12T02:18:33;5.88;;;5.20;;
64903;SDS011;51401;48.882;12.598;2022-11-12T02:21:03;5.90;;;4.75;;
64903;SDS011;51401;48.882;12.598;2022-11-12T02:23:31;9.63;;;5.03;;
64903;SDS011;51401;48.882;12.598;2022-11-12T02:26:00;11.07;;;5.03;;
64903;SDS011;51401;48.882;12.598;2022-11-12T02:28:26;9.90;;;4.72;;
64903;SDS011;51401;48.882;12.598;2022-11-12T02:30:54;12.52;;;4.40;;
64903;SDS011;51401;48.882;12.598;2022-11-12T02:33:19;8.35;;;4.55;;
64903;SDS011;51401;48.882;12.598;2022-11-12T02:35:44;9.57;;;5.05;;
64903;SDS011;51401;48.882;12.598;2022-11-12T02:38:10;8.00;;;4.50;;
64903;SDS011;51401;48.882;12.598;2022-11-12T02:40:35;10.38;;;5.22;;
64903;SDS011;51401;48.882;12.598;2022-11-12T02:43:01;8.98;;;4.75;;
64903;SDS011;51401;48.882;12.598;2022-11-12T02:45:26;9.68;;;4.70;;
64903;SDS011;51401;48.882;12.598;2022-11-12T02:47:52;7.72;;;4.75;;
64903;SDS011;51401;48.882;12.598;2022-11-12T02:50:17;8.55;;;4.93;;
64903;SDS011;51401;48.882;12.598;2022-11-12T02:52:43;7.47;;;4.60;;
64903;SDS011;51401;48.882;12.598;2022-11-12T02:55:09;11.70;;;5.47;;
64903;SDS011;51401;48.882;12.598;2022-11-12T02:57:36;6.63;;;4.70;;
64903;SDS011;51401;48.882;12.598;2022-11-12T03:00:03;10.45;;;4.68;;
64903;SDS011;51401;48.882;12.598;2022-11-12T03:02:29;9.32;;;4.88;;
64903;SDS011;51401;48.882;12.598;2022-11-12T03:04:55;18.38;;;4.68;;
64903;SDS011;51401;48.882;12.598;2022-11-12T03:07:20;9.27;;;5.03;;
64903;SDS011;51401;48.882;12.598;2022-11-12T03:09:45;7.38;;;5.03;;
64903;SDS011;51401;48.882;12.598;2022-11-12T03:12:11;6.55;;;4.10;;
64903;SDS011;51401;48.882;12.598;2022-11-12T03:14:36;9.90;;;4.90;;
64903;SDS011;51401;48.882;12.598;2022-11-12T03:17:02;8.75;;;4.75;;
64903;SDS011;51401;48.882;12.598;2022-11-12T03:19:27;7.35;;;4.53;;
64903;SDS011;51401;48.882;12.598;2022-11-12T03:21:53;9.43;;;5.07;;
64903;SDS011;51401;48.882;12.598;2022-11-12T03:24:18;6.43;;;4.45;;
64903;SDS011;51401;48.882;12.598;2022-11-12T03:26:43;10.40;;;5.50;;
64903;SDS011;51401;48.882;12.598;2022-11-12T03:29:08;8.80;;;5.25;;
64903;SDS011;51401;48.882;12.598;2022-11-12T03:31:34;9.63;;;4.88;;
64903;SDS011;51401;48.882;12.598;2022-11-12T03:33:59;7.03;;;4.45;;
64903;SDS011;51401;48.882;12.598;2022-11-12T03:36:25;9.45;;;5.22;;
64903;SDS011;51401;48.882;12.598;2022-11-12T03:38:50;15.23;;;5.72;;
64903;SDS011;51401;48.882;12.598;2022-11-12T03:41:15;11.30;;;5.82;;
64903;SDS011;51401;48.882;12.598;2022-11-12T03:43:41;9.00;;;4.85;;
64903;SDS011;51401;48.882;12.598;2022-11-12T03:46:06;8.82;;;4.97;;
64903;SDS011;51401;48.882;12.598;2022-11-12T03:48:31;8.98;;;5.03;;
64903;SDS011;51401;48.882;12.598;2022-11-12T03:50:59;8.40;;;5.05;;
64903;SDS011;51401;48.882;12.598;2022-11-12T03:53:25;8.73;;;5.30;;
64903;SDS011;51401;48.882;12.598;2022-11-12T03:55:50;7.35;;;5.35;;
64903;SDS011;51401;48.882;12.598;2022-11-12T03:58:16;7.80;;;5.25;;
64903;SDS011;51401;48.882;12.598;2022-11-12T04:00:41;7.78;;;5.05;;
64903;SDS011;51401;48.882;12.598;2022-11-12T04:03:07;7.75;;;4.80;;
64903;SDS011;51401;48.882;12.598;2022-11-12T04:05:32;7.30;;;5.20;;
64903;SDS011;51401;48.882;12.598;2022-11-12T04:08:21;11.57;;;5.50;;
64903;SDS011;51401;48.882;12.598;2022-11-12T04:11:00;7.25;;;4.75;;
64903;SDS011;51401;48.882;12.598;2022-11-12T04:13:27;10.40;;;5.43;;
64903;SDS011;51401;48.882;12.598;2022-11-12T04:15:56;8.98;;;5.13;;
64903;SDS011;51401;48.882;12.598;2022-11-12T04:18:49;11.27;;;5.63;;
64903;SDS011;51401;48.882;12.598;2022-11-12T04:21:36;7.18;;;4.28;;
64903;SDS011;51401;48.882;12.598;2022-11-12T04:24:15;7.85;;;4.65;;
64903;SDS011;51401;48.882;12.598;2022-11-12T04:27:00;8.20;;;4.95;;
64903;SDS011;51401;48.882;12.598;2022-11-12T04:29:25;7.85;;;4.93;;
64903;SDS011;51401;48.882;12.598;2022-11-12T04:32:09;4.70;;;3.70;;
64903;SDS011;51401;48.882;12.598;2022-11-12T04:34:35;8.35;;;4.13;;
64903;SDS011;51401;48.882;12.598;2022-11-12T04:37:01;10.68;;;5.38;;
64903;SDS011;51401;48.882;12.598;2022-11-12T04:39:27;13.32;;;5.03;;
64903;SDS011;51401;48.882;12.598;2022-11-12T04:41:52;9.60;;;4.53;;
64903;SDS011;51401;48.882;12.598;2022-11-12T04:44:36;5.65;;;3.95;;
64903;SDS011;51401;48.882;12.598;2022-11-12T04:47:20;12.93;;;5.10;;
64903;SDS011;51401;48.882;12.598;2022-11-12T04:49:45;7.65;;;4.55;;
64903;SDS011;51401;48.882;12.598;2022-11-12T04:52:11;6.07;;;4.13;;
64903;SDS011;51401;48.882;12.598;2022-11-12T04:54:36;6.13;;;4.30;;
64903;SDS011;51401;48.882;12.598;2022-11-12T04:57:02;9.63;;;4.38;;
64903;SDS011;51401;48.882;12.598;2022-11-12T04:59:27;6.03;;;4.35;;
64903;SDS011;51401;48.882;12.598;2022-11-12T05:01:53;8.35;;;4.53;;
64903;SDS011;51401;48.882;12.598;2022-11-12T05:04:18;7.85;;;4.07;;
64903;SDS011;51401;48.882;12.598;2022-11-12T05:06:43;5.72;;;3.75;;
64903;SDS011;51401;48.882;12.598;2022-11-12T05:09:27;5.85;;;3.60;;
64903;SDS011;51401;48.882;12.598;2022-11-12T05:11:54;7.45;;;4.55;;
64903;SDS011;51401;48.882;12.598;2022-11-12T05:14:20;5.78;;;4.57;;
64903;SDS011;51401;48.882;12.598;2022-11-12T05:16:46;5.28;;;4.03;;
64903;SDS011;51401;48.882;12.598;2022-11-12T05:19:12;7.82;;;4.63;;
64903;SDS011;51401;48.882;12.598;2022-11-12T05:21:37;12.85;;;4.78;;
64903;SDS011;51401;48.882;12.598;2022-11-12T05:24:21;9.63;;;4.00;;
64903;SDS011;51401;48.882;12.598;2022-11-12T05:26:46;5.32;;;3.95;;
64903;SDS011;51401;48.882;12.598;2022-11-12T05:29:12;6.35;;;3.55;;
64903;SDS011;51401;48.882;12.598;2022-11-12T05:31:37;8.88;;;4.00;;
64903;SDS011;51401;48.882;12.598;2022-11-12T05:34:02;4.95;;;3.78;;
64903;SDS011;51401;48.882;12.598;2022-11-12T05:36:28;8.80;;;3.92;;
64903;SDS011;51401;48.882;12.598;2022-11-12T05:38:53;9.82;;;3.55;;
64903;SDS011;51401;48.882;12.598;2022-11-12T05:41:18;7.45;;;3.58;;
64903;SDS011;51401;48.882;12.598;2022-11-12T05:43:43;6.10;;;3.35;;
64903;SDS011;51401;48.882;12.598;2022-11-12T05:46:09;8.82;;;2.83;;
64903;SDS011;51401;48.882;12.598;2022-11-12T05:48:34;6.03;;;3.45;;
64903;SDS011;51401;48.882;12.598;2022-11-12T05:51:00;6.50;;;3.28;;
64903;SDS011;51401;48.882;12.598;2022-11-12T05:53:25;9.00;;;3.45;;
64903;SDS011;51401;48.882;12.598;2022-11-12T05:55:50;5.78;;;3.15;;
64903;SDS011;51401;48.882;12.598;2022-11-12T05:58:16;5.82;;;3.08;;
64903;SDS011;51401;48.882;12.598;2022-11-12T06:00:42;5.70;;;2.85;;
64903;SDS011;51401;48.882;12.598;2022-11-12T06:03:07;4.03;;;2.63;;
64903;SDS011;51401;48.882;12.598;2022-11-12T06:05:34;8.43;;;2.92;;
64903;SDS011;51401;48.882;12.598;2022-11-12T06:08:00;6.20;;;2.97;;
64903;SDS011;51401;48.882;12.598;2022-11-12T06:10:26;10.13;;;3.05;;
64903;SDS011;51401;48.882;12.598;2022-11-12T06:12:51;5.90;;;2.72;;
64903;SDS011;51401;48.882;12.598;2022-11-12T06:15:16;6.63;;;2.90;;
64903;SDS011;51401;48.882;12.598;2022-11-12T06:17:42;4.45;;;3.00;;
64903;SDS011;51401;48.882;12.598;2022-11-12T06:20:08;6.38;;;3.17;;
64903;SDS011;51401;48.882;12.598;2022-11-12T06:22:34;5.28;;;3.15;;
64903;SDS011;51401;48.882;12.598;2022-11-12T06:24:59;7.55;;;3.40;;
64903;SDS011;51401;48.882;12.598;2022-11-12T06:27:24;8.00;;;2.75;;
64903;SDS011;51401;48.882;12.598;2022-11-12T06:29:50;8.65;;;3.30;;
64903;SDS011;51401;48.882;12.598;2022-11-12T06:32:16;3.22;;;2.50;;
64903;SDS011;51401;48.882;12.598;2022-11-12T06:34:41;5.25;;;2.42;;
64903;SDS011;51401;48.882;12.598;2022-11-12T06:37:07;4.68;;;2.20;;
64903;SDS011;51401;48.882;12.598;2022-11-12T06:39:32;3.13;;;2.60;;
64903;SDS011;51401;48.882;12.598;2022-11-12T06:41:57;6.28;;;3.03;;
64903;SDS011;51401;48.882;12.598;2022-11-12T06:44:22;9.45;;;3.17;;
64903;SDS011;51401;48.882;12.598;2022-11-12T06:46:48;8.10;;;3.20;;
64903;SDS011;51401;48.882;12.598;2022-11-12T06:49:13;7.88;;;3.70;;
64903;SDS011;51401;48.882;12.598;2022-11-12T06:51:39;6.88;;;3.05;;
64903;SDS011;51401;48.882;12.598;2022-11-12T06:54:05;7.35;;;2.75;;
64903;SDS011;51401;48.882;12.598;2022-11-12T06:56:30;7.30;;;3.13;;
64903;SDS011;51401;48.882;12.598;2022-11-12T06:58:55;7.47;;;3.50;;
64903;SDS011;51401;48.882;12.598;2022-11-12T07:01:21;7.55;;;3.20;;
64903;SDS011;51401;48.882;12.598;2022-11-12T07:03:49;5.50;;;3.90;;
64903;SDS011;51401;48.882;12.598;2022-11-12T07:06:16;7.93;;;3.20;;
64903;SDS011;51401;48.882;12.598;2022-11-12T07:08:44;6.72;;;2.65;;
64903;SDS011;51401;48.882;12.598;2022-11-12T07:11:15;4.28;;;2.58;;
64903;SDS011;51401;48.882;12.598;2022-11-12T07:13:42;5.88;;;3.60;;
64903;SDS011;51401;48.882;12.598;2022-11-12T07:16:11;9.75;;;3.60;;
64903;SDS011;51401;48.882;12.598;2022-11-12T07:18:37;8.68;;;3.42;;
64903;SDS011;51401;48.882;12.598;2022-11-12T07:21:07;5.50;;;3.58;;
64903;SDS011;51401;48.882;12.598;2022-11-12T07:23:35;5.72;;;3.25;;
64903;SDS011;51401;48.882;12.598;2022-11-12T07:26:02;4.53;;;3.10;;
64903;SDS011;51401;48.882;12.598;2022-11-12T07:28:31;9.07;;;2.78;;
64903;SDS011;51401;48.882;12.598;2022-11-12T07:30:58;5.22;;;2.90;;
64903;SDS011;51401;48.882;12.598;2022-11-12T07:33:27;5.03;;;3.05;;
64903;SDS011;51401;48.882;12.598;2022-11-12T07:35:59;4.78;;;2.53;;
64903;SDS011;51401;48.882;12.598;2022-11-12T07:38:26;5.25;;;3.00;;
64903;SDS011;51401;48.882;12.598;2022-11-12T07:43:25;8.52;;;3.40;;
64903;SDS011;51401;48.882;12.598;2022-11-12T07:45:51;4.90;;;3.38;;
64903;SDS011;51401;48.882;12.598;2022-11-12T07:48:17;6.45;;;3.88;;
64903;SDS011;51401;48.882;12.598;2022-11-12T07:50:42;6.43;;;3.65;;
64903;SDS011;51401;48.882;12.598;2022-11-12T07:53:07;6.30;;;3.50;;
64903;SDS011;51401;48.882;12.598;2022-11-12T07:55:33;8.43;;;3.38;;
64903;SDS011;51401;48.882;12.598;2022-11-12T07:57:58;6.22;;;2.90;;
64903;SDS011;51401;48.882;12.598;2022-11-12T08:00:24;5.32;;;3.17;;
64903;SDS011;51401;48.882;12.598;2022-11-12T08:02:49;6.18;;;3.17;;
64903;SDS011;51401;48.882;12.598;2022-11-12T08:05:14;7.00;;;3.60;;
64903;SDS011;51401;48.882;12.598;2022-11-12T08:07:40;5.13;;;3.33;;
64903;SDS011;51401;48.882;12.598;2022-11-12T08:10:05;4.90;;;3.00;;
64903;SDS011;51401;48.882;12.598;2022-11-12T08:12:31;8.07;;;3.20;;
64903;SDS011;51401;48.882;12.598;2022-11-12T08:14:56;5.38;;;3.30;;
64903;SDS011;51401;48.882;12.598;2022-11-12T08:17:21;7.68;;;2.60;;
64903;SDS011;51401;48.882;12.598;2022-11-12T08:19:47;10.60;;;3.88;;
64903;SDS011;51401;48.882;12.598;2022-11-12T08:22:12;5.53;;;3.03;;
64903;SDS011;51401;48.882;12.598;2022-11-12T08:24:37;5.35;;;3.60;;
64903;SDS011;51401;48.882;12.598;2022-11-12T08:27:03;5.38;;;3.17;;
64903;SDS011;51401;48.882;12.598;2022-11-12T08:29:28;7.28;;;4.18;;
64903;SDS011;51401;48.882;12.598;2022-11-12T08:31:53;5.70;;;3.10;;
64903;SDS011;51401;48.882;12.598;2022-11-12T08:34:18;7.72;;;3.88;;
64903;SDS011;51401;48.882;12.598;2022-11-12T08:36:44;8.27;;;3.60;;
64903;SDS011;51401;48.882;12.598;2022-11-12T08:39:09;7.53;;;5.00;;
64903;SDS011;51401;48.882;12.598;2022-11-12T08:41:34;5.57;;;3.97;;
64903;SDS011;51401;48.882;12.598;2022-11-12T08:44:00;9.48;;;4.50;;
64903;SDS011;51401;48.882;12.598;2022-11-12T08:46:25;9.23;;;4.30;;
64903;SDS011;51401;48.882;12.598;2022-11-12T08:48:50;8.00;;;4.47;;
64903;SDS011;51401;48.882;12.598;2022-11-12T08:51:16;12.20;;;5.25;;
64903;SDS011;51401;48.882;12.598;2022-11-12T08:53:41;8.15;;;4.40;;
64903;SDS011;51401;48.882;12.598;2022-11-12T08:56:06;10.32;;;6.10;;
64903;SDS011;51401;48.882;12.598;2022-11-12T08:58:31;9.07;;;4.75;;
64903;SDS011;51401;48.882;12.598;2022-11-12T09:01:02;10.43;;;4.35;;
64903;SDS011;51401;48.882;12.598;2022-11-12T09:03:29;9.27;;;4.53;;
64903;SDS011;51401;48.882;12.598;2022-11-12T09:05:54;10.45;;;4.60;;
64903;SDS011;51401;48.882;12.598;2022-11-12T09:08:21;9.10;;;5.32;;
64903;SDS011;51401;48.882;12.598;2022-11-12T09:10:48;9.90;;;5.00;;
64903;SDS011;51401;48.882;12.598;2022-11-12T09:13:15;8.32;;;4.65;;
64903;SDS011;51401;48.882;12.598;2022-11-12T09:15:42;11.75;;;5.88;;
64903;SDS011;51401;48.882;12.598;2022-11-12T09:18:10;20.70;;;5.70;;
64903;SDS011;51401;48.882;12.598;2022-11-12T09:23:04;8.73;;;4.73;;
64903;SDS011;51401;48.882;12.598;2022-11-12T09:25:31;12.60;;;5.55;;
64903;SDS011;51401;48.882;12.598;2022-11-12T09:27:57;10.15;;;5.50;;
64903;SDS011;51401;48.882;12.598;2022-11-12T09:30:29;12.77;;;5.70;;
64903;SDS011;51401;48.882;12.598;2022-11-12T09:32:57;12.18;;;5.90;;
64903;SDS011;51401;48.882;12.598;2022-11-12T09:35:23;10.65;;;5.70;;
64903;SDS011;51401;48.882;12.598;2022-11-12T09:37:48;11.15;;;5.25;;
64903;SDS011;51401;48.882;12.598;2022-11-12T09:40:17;9.38;;;5.38;;
64903;SDS011;51401;48.882;12.598;2022-11-12T09:42:45;9.25;;;5.90;;
64903;SDS011;51401;48.882;12.598;2022-11-12T09:47:56;10.55;;;6.53;;
64903;SDS011;51401;48.882;12.598;2022-11-12T09:52:54;9.07;;;5.40;;
64903;SDS011;51401;48.882;12.598;2022-11-12T09:58:13;13.32;;;8.20;;
64903;SDS011;51401;48.882;12.598;2022-11-12T10:00:40;10.40;;;6.28;;
64903;SDS011;51401;48.882;12.598;2022-11-12T10:06:13;10.88;;;6.70;;
64903;SDS011;51401;48.882;12.598;2022-11-12T10:08:47;11.95;;;6.95;;
64903;SDS011;51401;48.882;12.598;2022-11-12T10:16:54;15.02;;;9.32;;
64903;SDS011;51401;48.882;12.598;2022-11-12T10:19:41;10.80;;;6.53;;
64903;SDS011;51401;48.882;12.598;2022-11-12T10:25:09;10.30;;;6.05;;
64903;SDS011;51401;48.882;12.598;2022-11-12T10:27:39;14.65;;;6.57;;
64903;SDS011;51401;48.882;12.598;2022-11-12T10:30:06;11.00;;;7.30;;
64903;SDS011;51401;48.882;12.598;2022-11-12T10:32:40;15.02;;;8.27;;
64903;SDS011;51401;48.882;12.598;2022-11-12T10:35:07;14.40;;;7.65;;
64903;SDS011;51401;48.882;12.598;2022-11-12T10:37:37;12.88;;;6.53;;
64903;SDS011;51401;48.882;12.598;2022-11-12T10:43:02;11.00;;;7.22;;
64903;SDS011;51401;48.882;12.598;2022-11-12T10:45:45;11.32;;;7.28;;
64903;SDS011;51401;48.882;12.598;2022-11-12T10:48:25;12.95;;;6.97;;
64903;SDS011;51401;48.882;12.598;2022-11-12T10:50:52;12.68;;;7.53;;
64903;SDS011;51401;48.882;12.598;2022-11-12T10:56:27;15.00;;;6.88;;
64903;SDS011;51401;48.882;12.598;2022-11-12T10:59:13;12.45;;;7.15;;
64903;SDS011;51401;48.882;12.598;2022-11-12T11:01:43;12.95;;;7.93;;
64903;SDS011;51401;48.882;12.598;2022-11-12T11:04:27;13.45;;;7.25;;
64903;SDS011;51401;48.882;12.598;2022-11-12T11:06:59;11.07;;;7.40;;
64903;SDS011;51401;48.882;12.598;2022-11-12T11:09:50;9.02;;;5.65;;
64903;SDS011;51401;48.882;12.598;2022-11-12T11:12:28;10.85;;;6.05;;
64903;SDS011;51401;48.882;12.598;2022-11-12T11:15:04;12.05;;;6.80;;
64903;SDS011;51401;48.882;12.598;2022-11-12T11:17:31;14.15;;;8.18;;
64903;SDS011;51401;48.882;12.598;2022-11-12T11:19:56;15.65;;;8.35;;
64903;SDS011;51401;48.882;12.598;2022-11-12T11:30:17;12.00;;;7.38;;
64903;SDS011;51401;48.882;12.598;2022-11-12T11:40:37;9.55;;;7.22;;
64903;SDS011;51401;48.882;12.598;2022-11-12T11:45:47;12.00;;;6.57;;
64903;SDS011;51401;48.882;12.598;2022-11-12T11:54:01;9.68;;;6.70;;
64903;SDS011;51401;48.882;12.598;2022-11-12T11:59:15;10.50;;;6.35;;
64903;SDS011;51401;48.882;12.598;2022-11-12T12:04:19;13.85;;;6.75;;
64903;SDS011;51401;48.882;12.598;2022-11-12T12:07:04;12.80;;;7.25;;
64903;SDS011;51401;48.882;12.598;2022-11-12T12:09:52;11.18;;;6.15;;
64903;SDS011;51401;48.882;12.598;2022-11-12T12:12:31;11.77;;;7.28;;
64903;SDS011;51401;48.882;12.598;2022-11-12T12:23:09;10.60;;;5.88;;
64903;SDS011;51401;48.882;12.598;2022-11-12T12:25:48;11.25;;;7.10;;
64903;SDS011;51401;48.882;12.598;2022-11-12T12:28:21;13.10;;;7.32;;
64903;SDS011;51401;48.882;12.598;2022-11-12T12:31:04;12.57;;;6.68;;
64903;SDS011;51401;48.882;12.598;2022-11-12T12:36:26;18.52;;;10.10;;
64903;SDS011;51401;48.882;12.598;2022-11-12T12:39:03;11.05;;;7.03;;
64903;SDS011;51401;48.882;12.598;2022-11-12T12:41:41;12.70;;;6.85;;
64903;SDS011;51401;48.882;12.598;2022-11-12T12:44:10;11.73;;;7.97;;
64903;SDS011;51401;48.882;12.598;2022-11-12T12:46:39;13.38;;;7.40;;
64903;SDS011;51401;48.882;12.598;2022-11-12T12:49:27;16.25;;;7.40;;
64903;SDS011;51401;48.882;12.598;2022-11-12T12:57:00;10.02;;;6.88;;
64903;SDS011;51401;48.882;12.598;2022-11-12T12:59:27;19.25;;;7.75;;
64903;SDS011;51401;48.882;12.598;2022-11-12T13:01:54;11.73;;;7.13;;
64903;SDS011;51401;48.882;12.598;2022-11-12T13:07:21;15.43;;;9.55;;
64903;SDS011;51401;48.882;12.598;2022-11-12T13:13:03;42.15;;;18.58;;
64903;SDS011;51401;48.882;12.598;2022-11-12T13:21:20;13.80;;;7.47;;
64903;SDS011;51401;48.882;12.598;2022-11-12T13:26:51;11.80;;;7.70;;
64903;SDS011;51401;48.882;12.598;2022-11-12T13:31:45;22.73;;;12.20;;
64903;SDS011;51401;48.882;12.598;2022-11-12T13:34:11;12.90;;;8.60;;
64903;SDS011;51401;48.882;12.598;2022-11-12T13:36:55;24.30;;;14.30;;
64903;SDS011;51401;48.882;12.598;2022-11-12T13:39:22;16.40;;;10.02;;
64903;SDS011;51401;48.882;12.598;2022-11-12T13:41:57;13.05;;;8.40;;
64903;SDS011;51401;48.882;12.598;2022-11-12T13:44:41;13.13;;;9.43;;
64903;SDS011;51401;48.882;12.598;2022-11-12T13:47:15;14.82;;;9.60;;
64903;SDS011;51401;48.882;12.598;2022-11-12T13:49:45;16.27;;;8.75;;
64903;SDS011;51401;48.882;12.598;2022-11-12T13:52:12;15.80;;;10.07;;
64903;SDS011;51401;48.882;12.598;2022-11-12T13:54:39;15.48;;;10.07;;
64903;SDS011;51401;48.882;12.598;2022-11-12T13:59:39;17.00;;;9.70;;
64903;SDS011;51401;48.882;12.598;2022-11-12T14:02:14;12.63;;;8.07;;
64903;SDS011;51401;48.882;12.598;2022-11-12T14:04:49;15.63;;;8.52;;
64903;SDS011;51401;48.882;12.598;2022-11-12T14:18:26;12.32;;;8.40;;
64903;SDS011;51401;48.882;12.598;2022-11-12T14:21:03;14.40;;;9.23;;
64903;SDS011;51401;48.882;12.598;2022-11-12T14:23:30;11.57;;;7.20;;
64903;SDS011;51401;48.882;12.598;2022-11-12T14:25:55;14.65;;;8.85;;
64903;SDS011;51401;48.882;12.598;2022-11-12T14:28:31;15.00;;;9.18;;
64903;SDS011;51401;48.882;12.598;2022-11-12T14:30:58;14.82;;;8.20;;
64903;SDS011;51401;48.882;12.598;2022-11-12T14:33:25;18.38;;;8.90;;
64903;SDS011;51401;48.882;12.598;2022-11-12T14:35:52;11.90;;;7.72;;
64903;SDS011;51401;48.882;12.598;2022-11-12T14:38:22;13.95;;;8.43;;
64903;SDS011;51401;48.882;12.598;2022-11-12T14:40:54;22.15;;;8.55;;
64903;SDS011;51401;48.882;12.598;2022-11-12T14:43:28;15.68;;;9.63;;
64903;SDS011;51401;48.882;12.598;2022-11-12T14:45:58;11.45;;;7.88;;
64903;SDS011;51401;48.882;12.598;2022-11-12T14:48:25;13.32;;;8.57;;
64903;SDS011;51401;48.882;12.598;2022-11-12T14:50:53;13.63;;;7.72;;
64903;SDS011;51401;48.882;12.598;2022-11-12T14:56:02;14.88;;;8.80;;
64903;SDS011;51401;48.882;12.598;2022-11-12T14:58:31;22.83;;;9.27;;
64903;SDS011;51401;48.882;12.598;2022-11-12T15:00:57;15.38;;;9.40;;
64903;SDS011;51401;48.882;12.598;2022-11-12T15:03:24;13.65;;;8.45;;
64903;SDS011;51401;48.882;12.598;2022-11-12T15:08:35;17.33;;;9.55;;
64903;SDS011;51401;48.882;12.598;2022-11-12T15:11:16;14.98;;;8.27;;
64903;SDS011;51401;48.882;12.598;2022-11-12T15:13:44;16.55;;;9.68;;
64903;SDS011;51401;48.882;12.598;2022-11-12T15:16:11;14.45;;;8.05;;
64903;SDS011;51401;48.882;12.598;2022-11-12T15:18:43;15.23;;;8.35;;
64903;SDS011;51401;48.882;12.598;2022-11-12T15:23:51;12.18;;;7.90;;
64903;SDS011;51401;48.882;12.598;2022-11-12T15:26:37;16.77;;;8.02;;
64903;SDS011;51401;48.882;12.598;2022-11-12T15:31:49;12.82;;;8.00;;
64903;SDS011;51401;48.882;12.598;2022-11-12T15:36:49;14.48;;;7.93;;
64903;SDS011;51401;48.882;12.598;2022-11-12T15:39:14;12.63;;;7.45;;
64903;SDS011;51401;48.882;12.598;2022-11-12T15:41:39;13.82;;;8.07;;
64903;SDS011;51401;48.882;12.598;2022-11-12T15:44:07;17.23;;;8.98;;
64903;SDS011;51401;48.882;12.598;2022-11-12T15:46:33;15.55;;;9.05;;
64903;SDS011;51401;48.882;12.598;2022-11-12T15:48:58;18.92;;;10.68;;
64903;SDS011;51401;48.882;12.598;2022-11-12T15:51:24;21.08;;;9.98;;
64903;SDS011;51401;48.882;12.598;2022-11-12T15:53:49;24.30;;;14.23;;
64903;SDS011;51401;48.882;12.598;2022-11-12T15:56:15;23.15;;;11.93;;
64903;SDS011;51401;48.882;12.598;2022-11-12T15:58:43;25.88;;;13.90;;
64903;SDS011;51401;48.882;12.598;2022-11-12T16:01:09;21.65;;;11.80;;
64903;SDS011;51401;48.882;12.598;2022-11-12T16:03:35;23.55;;;11.23;;
64903;SDS011;51401;48.882;12.598;2022-11-12T16:06:00;21.50;;;12.25;;
64903;SDS011;51401;48.882;12.598;2022-11-12T16:08:25;25.80;;;12.23;;
64903;SDS011;51401;48.882;12.598;2022-11-12T16:10:51;20.80;;;11.73;;
64903;SDS011;51401;48.882;12.598;2022-11-12T16:15:50;18.40;;;11.20;;
64903;SDS011;51401;48.882;12.598;2022-11-12T16:18:15;26.90;;;14.25;;
64903;SDS011;51401;48.882;12.598;2022-11-12T16:20:41;20.63;;;12.55;;
64903;SDS011;51401;48.882;12.598;2022-11-12T16:23:06;21.50;;;10.82;;
64903;SDS011;51401;48.882;12.598;2022-11-12T16:25:32;18.92;;;10.20;;
64903;SDS011;51401;48.882;12.598;2022-11-12T16:27:59;17.15;;;9.98;;
64903;SDS011;51401;48.882;12.598;2022-11-12T16:30:27;18.88;;;10.20;;
64903;SDS011;51401;48.882;12.598;2022-11-12T16:32:57;15.65;;;9.40;;
64903;SDS011;51401;48.882;12.598;2022-11-12T16:35:23;16.50;;;10.90;;
64903;SDS011;51401;48.882;12.598;2022-11-12T16:37:51;18.92;;;12.07;;